Time;durP1;ratioP1;P1;durP2;ratioP2;P2;SDS_P1;SDS_P2;PMS_P1;PMS_P2;Temp;Humidity;BMP_temperature;BMP_pressure;BME280_temperature;BME280_humidity;BME280_pressure;Samples;Min_cycle;Max_cycle;Signal;HPM_P1;HPM_P2
2023/12/01 00:04:22;;;;;;;12.90;11.70;;;6.00;43.80;;;;;;10085324;29;20249;-76
2023/12/01 00:09:25;;;;;;;13.07;11.97;;;6.00;43.70;;;;;;10088385;29;20280;-76
2023/12/01 00:14:30;;;;;;;12.40;11.30;;;6.00;43.70;;;;;;10087424;29;20326;-76
2023/12/01 00:19:33;;;;;;;12.83;11.63;;;6.00;43.90;;;;;;10084381;29;20732;-76
2023/12/01 00:24:36;;;;;;;12.40;11.30;;;6.00;43.70;;;;;;10086867;29;20239;-76
2023/12/01 00:29:42;;;;;;;12.33;11.23;;;6.00;43.60;;;;;;10084866;29;20654;-76
2023/12/01 00:34:45;;;;;;;13.17;12.00;;;6.00;43.80;;;;;;10086906;29;20326;-76
2023/12/01 00:39:48;;;;;;;11.33;10.30;;;6.10;43.80;;;;;;10085363;29;20245;-76
2023/12/01 00:44:53;;;;;;;12.57;11.47;;;6.10;43.70;;;;;;10084848;29;20234;-76
2023/12/01 00:49:56;;;;;;;12.10;11.00;;;6.00;43.90;;;;;;10085707;29;20254;-76
2023/12/01 00:54:59;;;;;;;11.83;10.83;;;6.10;43.70;;;;;;10088195;29;20250;-76
2023/12/01 01:00:07;;;;;;;12.93;11.73;;;6.00;43.70;;;;;;10083981;29;20330;-76
2023/12/01 01:05:10;;;;;;;12.73;11.63;;;6.10;43.90;;;;;;10086723;29;20322;-76
2023/12/01 01:10:13;;;;;;;12.63;11.53;;;6.10;43.70;;;;;;10083834;29;21574;-76
2023/12/01 01:15:18;;;;;;;12.50;11.40;;;6.00;43.80;;;;;;10083819;29;20247;-76
2023/12/01 01:20:21;;;;;;;12.47;11.37;;;6.10;44.00;;;;;;10085884;29;20239;-76
2023/12/01 01:25:25;;;;;;;11.77;10.63;;;6.10;43.90;;;;;;10088142;29;20238;-76
2023/12/01 01:30:29;;;;;;;12.47;11.37;;;6.10;43.90;;;;;;10082703;29;20342;-76
2023/12/01 01:35:32;;;;;;;12.10;11.10;;;6.10;43.90;;;;;;10085086;29;20271;-74
2023/12/01 01:40:36;;;;;;;12.30;11.20;;;6.10;43.70;;;;;;10089469;29;20231;-76
2023/12/01 01:45:41;;;;;;;12.73;11.53;;;6.10;43.90;;;;;;10084414;29;20330;-75
2023/12/01 01:50:44;;;;;;;13.13;11.97;;;6.10;43.90;;;;;;10086601;29;20346;-75
2023/12/01 01:55:47;;;;;;;14.00;12.70;;;6.10;43.70;;;;;;10089998;29;20263;-76
2023/12/01 02:00:52;;;;;;;13.53;12.27;;;6.10;43.90;;;;;;10083791;29;20603;-77
2023/12/01 02:05:57;;;;;;;13.07;11.87;;;6.10;43.90;;;;;;10109448;29;20329;-76
2023/12/01 02:11:00;;;;;;;12.97;11.77;;;6.10;43.90;;;;;;10127097;29;20234;-77
2023/12/01 02:16:06;;;;;;;12.67;11.47;;;6.10;43.80;;;;;;10126266;29;20238;-76
2023/12/01 02:21:09;;;;;;;11.97;10.87;;;6.10;44.00;;;;;;10084376;29;20227;-76
2023/12/01 02:26:14;;;;;;;13.40;12.20;;;6.10;44.00;;;;;;10082760;29;20272;-76
2023/12/01 02:31:17;;;;;;;12.80;11.60;;;6.10;44.10;;;;;;10079086;29;20238;-76
2023/12/01 02:36:20;;;;;;;13.67;12.37;;;6.10;43.90;;;;;;10081279;29;20234;-76
2023/12/01 02:41:25;;;;;;;12.80;11.70;;;6.10;43.90;;;;;;10084524;29;20230;-76
2023/12/01 02:46:28;;;;;;;14.03;12.73;;;6.10;43.90;;;;;;10078377;29;20950;-76
2023/12/01 02:51:31;;;;;;;13.47;12.27;;;6.10;43.70;;;;;;10100505;29;20332;-76
2023/12/01 02:56:36;;;;;;;14.50;13.20;;;6.10;43.90;;;;;;10092257;29;20235;-76
2023/12/01 03:01:39;;;;;;;14.40;13.00;;;6.10;44.00;;;;;;10084049;29;20980;-76
2023/12/01 03:06:42;;;;;;;14.63;13.33;;;6.10;44.00;;;;;;10088603;29;20715;-76
2023/12/01 03:11:48;;;;;;;13.63;12.33;;;6.10;43.90;;;;;;10087028;29;20248;-76
2023/12/01 03:16:52;;;;;;;14.00;12.70;;;6.10;44.00;;;;;;10089614;29;20246;-76
2023/12/01 03:21:55;;;;;;;13.40;12.20;;;6.10;44.00;;;;;;10090721;29;20263;-76
2023/12/01 03:27:00;;;;;;;12.73;11.63;;;6.10;43.90;;;;;;10090887;29;20726;-76
2023/12/01 03:32:04;;;;;;;12.77;11.60;;;6.10;44.00;;;;;;10093658;29;20254;-76
2023/12/01 03:37:08;;;;;;;11.23;10.27;;;6.10;44.00;;;;;;10093679;29;20231;-76
2023/12/01 03:42:12;;;;;;;11.27;10.27;;;6.10;43.90;;;;;;10090315;29;20245;-76
2023/12/01 03:47:16;;;;;;;10.43;9.53;;;6.10;44.00;;;;;;10088800;29;20726;-76
2023/12/01 03:52:20;;;;;;;9.47;8.67;;;6.10;43.80;;;;;;10085912;29;20234;-76
2023/12/01 03:57:27;;;;;;;11.37;10.37;;;6.00;43.70;;;;;;10086224;29;20238;-75
2023/12/01 04:02:30;;;;;;;11.17;10.17;;;6.00;43.90;;;;;;10088001;29;20231;-76
2023/12/01 04:07:33;;;;;;;12.63;11.50;;;6.00;43.70;;;;;;10091943;29;20330;-76
2023/12/01 04:12:40;;;;;;;12.23;11.13;;;6.00;43.70;;;;;;10086636;29;20253;-76
2023/12/01 04:17:44;;;;;;;12.70;11.53;;;6.00;43.90;;;;;;10089547;29;20227;-76
2023/12/01 04:22:48;;;;;;;12.93;11.73;;;6.00;43.90;;;;;;10094702;29;20283;-76
2023/12/01 04:27:53;;;;;;;12.47;11.37;;;6.00;43.80;;;;;;10087505;29;20223;-77
2023/12/01 04:32:59;;;;;;;12.83;11.63;;;6.00;44.00;;;;;;10085743;29;20243;-77
2023/12/01 04:38:04;;;;;;;12.43;11.30;;;6.00;43.90;;;;;;10086995;29;20243;-77
2023/12/01 04:43:09;;;;;;;12.83;11.63;;;6.00;43.90;;;;;;10086385;29;20246;-77
2023/12/01 04:48:12;;;;;;;11.93;10.83;;;6.00;43.90;;;;;;10085408;29;20262;-77
2023/12/01 04:53:15;;;;;;;12.33;11.13;;;6.00;44.00;;;;;;10084520;29;20246;-77
2023/12/01 04:58:20;;;;;;;12.47;11.37;;;6.00;43.90;;;;;;10084053;29;20697;-77
2023/12/01 05:03:23;;;;;;;11.63;10.53;;;6.00;44.00;;;;;;10086648;29;20292;-77
2023/12/01 05:08:27;;;;;;;12.30;11.27;;;6.00;43.90;;;;;;10082777;29;20602;-77
2023/12/01 05:13:32;;;;;;;11.83;10.83;;;6.00;43.90;;;;;;10084202;29;20254;-77
2023/12/01 05:18:35;;;;;;;12.00;10.93;;;5.90;43.90;;;;;;10085415;29;20345;-77
2023/12/01 05:23:39;;;;;;;11.87;10.83;;;5.90;43.90;;;;;;10084526;29;20235;-77
2023/12/01 05:28:44;;;;;;;12.27;11.17;;;6.00;44.00;;;;;;10084281;29;20243;-77
2023/12/01 05:33:47;;;;;;;11.57;10.57;;;6.00;44.00;;;;;;10082604;29;20239;-78
2023/12/01 05:39:12;;;;;;;11.60;10.60;;;6.00;44.00;;;;;;10083968;29;20238;-77
2023/12/01 05:44:17;;;;;;;10.53;9.57;;;6.00;44.00;;;;;;10086096;29;20239;-77
2023/12/01 05:49:20;;;;;;;11.67;10.67;;;6.00;44.10;;;;;;10080101;29;20235;-76
2023/12/01 05:54:23;;;;;;;11.20;10.20;;;6.00;44.10;;;;;;10083481;29;20258;-76
2023/12/01 05:59:28;;;;;;;10.97;10.07;;;6.00;44.10;;;;;;10080643;29;20765;-76
2023/12/01 06:04:32;;;;;;;10.17;9.27;;;6.00;44.10;;;;;;10082787;29;20245;-76
2023/12/01 06:09:36;;;;;;;11.40;10.40;;;6.00;44.00;;;;;;10082612;29;20239;-76
2023/12/01 06:14:40;;;;;;;11.37;10.30;;;6.00;44.10;;;;;;10085112;29;20274;-77
2023/12/01 06:19:44;;;;;;;10.57;9.47;;;6.00;44.10;;;;;;10083632;29;20243;-76
2023/12/01 06:24:47;;;;;;;11.40;10.40;;;6.10;45.30;;;;;;10087769;29;20247;-76
2023/12/01 06:29:51;;;;;;;9.77;8.93;;;6.20;45.40;;;;;;10091630;29;20359;-77
2023/12/01 06:34:55;;;;;;;10.63;9.73;;;6.30;45.20;;;;;;10090573;29;20248;-77
2023/12/01 06:39:58;;;;;;;11.50;10.50;;;6.30;44.60;;;;;;10090080;29;20235;-77
2023/12/01 06:45:04;;;;;;;11.63;10.60;;;6.30;44.40;;;;;;10090208;29;20231;-77
2023/12/01 06:50:10;;;;;;;11.77;10.67;;;6.30;44.30;;;;;;10088563;29;20319;-77
2023/12/01 06:55:13;;;;;;;11.17;10.23;;;6.30;44.10;;;;;;10082334;29;20239;-77
2023/12/01 07:00:29;;;;;;;11.33;10.33;;;6.30;44.00;;;;;;10089974;29;20322;-77
2023/12/01 07:05:35;;;;;;;11.70;10.63;;;6.30;44.10;;;;;;10089784;29;20928;-77
2023/12/01 07:10:39;;;;;;;11.87;10.77;;;6.20;43.80;;;;;;10088055;29;20738;-77
2023/12/01 07:15:43;;;;;;;11.13;10.23;;;6.20;43.80;;;;;;10087969;29;20241;-77
2023/12/01 07:20:47;;;;;;;11.77;10.67;;;6.20;44.00;;;;;;10086801;29;20247;-77
2023/12/01 07:25:51;;;;;;;11.70;10.60;;;6.20;44.00;;;;;;10085915;29;21056;-77
2023/12/01 07:30:55;;;;;;;11.33;10.33;;;6.20;44.00;;;;;;10089877;29;20255;-77
2023/12/01 07:35:58;;;;;;;10.27;9.33;;;6.10;44.10;;;;;;10084875;29;20239;-77
2023/12/01 07:41:02;;;;;;;11.37;10.37;;;6.20;44.10;;;;;;10088244;29;20245;-76
2023/12/01 07:46:08;;;;;;;11.93;10.83;;;6.20;44.10;;;;;;10087577;29;20242;-77
2023/12/01 07:51:11;;;;;;;12.80;11.70;;;6.20;44.20;;;;;;10084141;29;20235;-77
2023/12/01 07:56:21;;;;;;;12.00;10.90;;;6.20;44.10;;;;;;10071928;29;20801;-76
2023/12/01 08:01:26;;;;;;;12.27;11.17;;;6.20;44.10;;;;;;10075899;29;20342;-75
2023/12/01 08:06:29;;;;;;;11.43;10.43;;;6.20;44.00;;;;;;10082073;29;20243;-77
2023/12/01 08:11:33;;;;;;;11.73;10.53;;;6.20;44.10;;;;;;10086808;29;20262;-76
2023/12/01 08:16:37;;;;;;;11.23;10.23;;;6.20;44.10;;;;;;10089128;29;20274;-77
2023/12/01 08:21:41;;;;;;;10.67;9.73;;;6.20;43.90;;;;;;10085971;29;20352;-76
2023/12/01 08:26:46;;;;;;;10.73;9.77;;;6.20;43.90;;;;;;10084444;29;20238;-76
2023/12/01 08:31:52;;;;;;;11.00;10.00;;;6.20;43.80;;;;;;10082560;29;20243;-76
2023/12/01 08:36:56;;;;;;;10.70;9.70;;;6.20;44.10;;;;;;10082175;29;20258;-77
2023/12/01 08:41:59;;;;;;;10.87;9.87;;;6.20;44.00;;;;;;10081904;29;20235;-77
2023/12/01 08:47:04;;;;;;;11.10;10.10;;;6.20;43.80;;;;;;10075918;29;20281;-78
2023/12/01 08:52:08;;;;;;;11.30;10.30;;;6.20;43.90;;;;;;10073958;29;20247;-76
2023/12/01 08:57:11;;;;;;;12.70;11.50;;;6.30;44.10;;;;;;10075354;29;20321;-76
2023/12/01 09:02:16;;;;;;;12.27;11.10;;;6.30;43.90;;;;;;10067417;29;20254;-75
2023/12/01 09:07:20;;;;;;;11.87;10.77;;;6.30;44.00;;;;;;10081990;29;20257;-75
2023/12/01 09:12:31;;;;;;;12.47;11.23;;;6.30;43.80;;;;;;10399671;28;20577;-71
2023/12/01 09:17:34;;;;;;;12.10;11.03;;;6.40;43.90;;;;;;10396608;28;20615;-71
2023/12/01 09:22:38;;;;;;;12.23;11.13;;;6.40;43.90;;;;;;10419813;28;20599;-70
2023/12/01 09:27:42;;;;;;;12.50;11.30;;;6.40;43.90;;;;;;10420586;28;20708;-70
2023/12/01 09:32:46;;;;;;;12.60;11.40;;;6.40;43.90;;;;;;10403996;28;20637;-70
2023/12/01 09:37:50;;;;;;;12.93;11.73;;;6.40;43.90;;;;;;10403476;28;20279;-70
2023/12/01 09:42:54;;;;;;;13.17;11.90;;;6.40;43.90;;;;;;10418443;28;20607;-72
2023/12/01 09:47:59;;;;;;;12.33;11.23;;;6.40;43.90;;;;;;10414204;28;20233;-71
2023/12/01 09:53:03;;;;;;;12.80;11.60;;;6.40;43.90;;;;;;10420673;28;20237;-73
2023/12/01 09:58:08;;;;;;;12.07;10.97;;;6.40;43.90;;;;;;10415739;28;20221;-72
2023/12/01 10:03:11;;;;;;;13.17;11.97;;;6.40;43.70;;;;;;10412264;28;20236;-72
2023/12/01 10:08:16;;;;;;;13.17;11.93;;;6.40;43.80;;;;;;10393517;28;20452;-74
2023/12/01 10:13:21;;;;;;;13.03;11.83;;;6.40;43.90;;;;;;10393282;28;20714;-72
2023/12/01 10:18:25;;;;;;;12.10;11.00;;;6.40;43.90;;;;;;10389111;28;20343;-72
2023/12/01 10:23:33;;;;;;;13.67;12.47;;;6.40;43.90;;;;;;10358725;28;20237;-72
2023/12/01 10:28:42;;;;;;;14.27;12.93;;;6.40;43.90;;;;;;10353840;28;20230;-69
2023/12/01 10:33:48;;;;;;;14.30;13.07;;;6.50;43.90;;;;;;10347870;28;20319;-68
2023/12/01 10:38:53;;;;;;;13.47;12.27;;;6.50;44.00;;;;;;10365999;28;20326;-72
2023/12/01 10:43:58;;;;;;;13.53;12.33;;;6.50;43.90;;;;;;10357683;28;20234;-72
2023/12/01 10:49:04;;;;;;;12.10;11.00;;;6.50;44.00;;;;;;10377913;28;20238;-70
2023/12/01 10:54:10;;;;;;;11.80;10.70;;;6.50;43.40;;;;;;10385839;28;20236;-71
2023/12/01 10:59:19;;;;;;;12.00;10.90;;;6.50;43.50;;;;;;10385358;28;20316;-72
2023/12/01 11:04:26;;;;;;;12.50;11.40;;;6.50;43.50;;;;;;10387137;28;20278;-72
2023/12/01 11:09:38;;;;;;;12.57;11.47;;;6.40;43.60;;;;;;10390063;28;20657;-72
2023/12/01 11:14:45;;;;;;;11.97;10.87;;;6.40;43.70;;;;;;10393413;28;20224;-72
2023/12/01 11:19:48;;;;;;;12.47;11.37;;;6.40;43.90;;;;;;10390853;28;20237;-72
2023/12/01 11:24:51;;;;;;;14.17;12.77;;;6.40;43.90;;;;;;10392282;28;20230;-71
2023/12/01 11:30:07;;;;;;;12.87;11.67;;;6.40;43.90;;;;;;10388636;28;20225;-71
2023/12/01 11:35:11;;;;;;;12.77;11.67;;;6.40;43.90;;;;;;10383739;28;20697;-72
2023/12/01 11:40:22;;;;;;;14.23;12.93;;;6.40;43.50;;;;;;10386033;28;20236;-71
2023/12/01 11:45:38;;;;;;;14.30;12.97;;;6.40;43.40;;;;;;10386359;28;20233;-72
2023/12/01 11:50:42;;;;;;;14.20;12.93;;;6.40;43.30;;;;;;10388538;28;20221;-72
2023/12/01 11:55:50;;;;;;;13.67;12.47;;;6.30;43.10;;;;;;10389487;28;20226;-72
2023/12/01 12:00:54;;;;;;;12.63;11.43;;;6.20;43.20;;;;;;10391501;28;20236;-72
2023/12/01 12:05:57;;;;;;;11.57;10.53;;;6.20;43.40;;;;;;10382722;28;20304;-69
2023/12/01 12:11:01;;;;;;;12.00;11.00;;;6.10;43.40;;;;;;10377997;28;20318;-69
2023/12/01 12:16:06;;;;;;;12.20;11.10;;;6.10;43.70;;;;;;10377762;28;20222;-68
2023/12/01 12:21:10;;;;;;;11.63;10.53;;;6.10;43.90;;;;;;10381373;28;20811;-70
2023/12/01 12:26:14;;;;;;;12.77;11.67;;;6.20;45.50;;;;;;10383100;28;20280;-70
2023/12/01 12:31:20;;;;;;;13.77;12.53;;;6.40;47.40;;;;;;10382813;28;20256;-70
2023/12/01 12:36:26;;;;;;;13.60;12.40;;;6.60;45.80;;;;;;10380147;28;20773;-70
2023/12/01 12:41:31;;;;;;;12.57;11.47;;;6.80;44.60;;;;;;10383729;28;20230;-70
2023/12/01 12:46:36;;;;;;;11.80;10.80;;;6.80;44.20;;;;;;10384015;28;20703;-70
2023/12/01 12:51:40;;;;;;;12.13;11.10;;;6.70;43.80;;;;;;10377887;28;20233;-70
2023/12/01 12:56:43;;;;;;;11.47;10.47;;;6.70;43.70;;;;;;10382783;28;20660;-70
2023/12/01 13:01:48;;;;;;;13.17;11.97;;;6.70;43.70;;;;;;10380880;28;20260;-70
2023/12/01 13:06:52;;;;;;;12.50;11.40;;;6.60;43.50;;;;;;10376033;28;20230;-70
2023/12/01 13:11:55;;;;;;;11.53;10.53;;;6.60;43.50;;;;;;10374107;28;20674;-69
2023/12/01 13:16:59;;;;;;;12.27;11.27;;;6.60;43.60;;;;;;10375644;28;20266;-68
2023/12/01 13:22:03;;;;;;;12.00;10.93;;;6.50;43.60;;;;;;10373586;28;20230;-68
2023/12/01 13:27:06;;;;;;;12.33;11.13;;;6.50;43.60;;;;;;10380689;28;20218;-71
2023/12/01 13:32:11;;;;;;;12.00;10.90;;;6.50;44.10;;;;;;10389827;28;20724;-71
2023/12/01 13:37:14;;;;;;;11.37;10.37;;;6.50;44.00;;;;;;10388782;28;20301;-72
2023/12/01 13:42:17;;;;;;;11.33;10.33;;;6.50;43.90;;;;;;10388032;28;20239;-71
2023/12/01 13:47:23;;;;;;;9.13;8.23;;;6.50;43.70;;;;;;10384510;28;20285;-79
2023/12/01 13:52:27;;;;;;;10.43;9.63;;;6.40;44.30;;;;;;10389527;28;20280;-72
2023/12/01 13:57:30;;;;;;;11.53;10.53;;;6.40;43.90;;;;;;10389692;28;20233;-72
2023/12/01 14:02:35;;;;;;;11.80;10.70;;;6.40;43.90;;;;;;10394450;28;20234;-72
2023/12/01 14:07:38;;;;;;;11.33;10.33;;;6.40;43.80;;;;;;10393051;28;20252;-73
2023/12/01 14:12:42;;;;;;;11.83;10.73;;;6.40;43.80;;;;;;10397865;28;20727;-73
2023/12/01 14:17:46;;;;;;;10.73;9.73;;;6.30;43.70;;;;;;10395356;28;20230;-71
2023/12/01 14:22:50;;;;;;;13.83;12.47;;;6.30;43.80;;;;;;10396708;28;20275;-72
2023/12/01 14:27:53;;;;;;;13.50;12.30;;;6.30;43.80;;;;;;10389267;28;20225;-72
2023/12/01 14:32:57;;;;;;;9.93;9.03;;;6.30;43.80;;;;;;10392721;28;20297;-72
2023/12/01 14:38:01;;;;;;;11.00;10.00;;;6.30;44.40;;;;;;10396140;28;20578;-72
2023/12/01 14:43:04;;;;;;;10.80;9.90;;;6.30;44.40;;;;;;10392236;28;20217;-72
2023/12/01 14:48:09;;;;;;;10.47;9.57;;;6.30;44.10;;;;;;10392075;28;20223;-72
2023/12/01 14:53:12;;;;;;;10.43;9.57;;;6.30;43.90;;;;;;10392221;28;20237;-72
2023/12/01 14:58:16;;;;;;;10.13;9.30;;;6.20;43.70;;;;;;10388843;28;20276;-73
2023/12/01 15:03:21;;;;;;;9.33;8.47;;;6.20;43.70;;;;;;10389452;28;20261;-72
2023/12/01 15:08:24;;;;;;;10.87;9.87;;;6.20;43.90;;;;;;10386342;28;20229;-72
2023/12/01 15:13:28;;;;;;;10.77;9.87;;;6.20;43.70;;;;;;10392637;28;20320;-72
2023/12/01 15:18:33;;;;;;;10.20;9.33;;;6.10;43.70;;;;;;10388811;28;20742;-73
2023/12/01 15:23:40;;;;;;;9.97;9.07;;;6.10;43.90;;;;;;10392967;28;20253;-70
2023/12/01 15:28:44;;;;;;;10.50;9.57;;;6.10;43.90;;;;;;10392414;28;20714;-70
2023/12/01 15:33:49;;;;;;;10.03;9.13;;;6.10;44.10;;;;;;10389487;28;20325;-70
2023/12/01 15:38:52;;;;;;;9.73;8.93;;;6.00;44.10;;;;;;10388221;28;20249;-70
2023/12/01 15:43:55;;;;;;;9.93;9.03;;;6.10;44.20;;;;;;10388858;28;20232;-70
2023/12/01 15:49:00;;;;;;;9.87;9.03;;;6.10;44.30;;;;;;10391054;28;20325;-70
2023/12/01 15:54:03;;;;;;;10.00;9.10;;;6.10;44.40;;;;;;10386256;28;20236;-70
2023/12/01 15:59:07;;;;;;;10.67;9.67;;;6.10;44.40;;;;;;10388331;28;20608;-70
2023/12/01 16:04:11;;;;;;;10.30;9.40;;;6.10;44.50;;;;;;10386373;28;20687;-70
2023/12/01 16:14:31;;;;;;;10.07;9.17;;;6.20;44.40;;;;;;2977151;26;20730;-77
2023/12/01 16:19:36;;;;;;;10.40;9.40;;;6.20;44.30;;;;;;10398377;28;20735;-78
2023/12/01 16:24:41;;;;;;;7.50;6.80;;;6.20;44.40;;;;;;10395142;28;20225;-78
2023/12/01 16:29:44;;;;;;;10.10;9.27;;;6.20;45.10;;;;;;10393175;28;20325;-78
2023/12/01 16:34:49;;;;;;;9.07;8.27;;;6.30;47.10;;;;;;10391642;28;20268;-77
2023/12/01 16:39:52;;;;;;;10.77;9.80;;;6.50;47.60;;;;;;10387981;28;20234;-77
2023/12/01 16:44:55;;;;;;;10.77;9.83;;;6.70;46.50;;;;;;10393294;28;20739;-77
2023/12/01 16:50:02;;;;;;;10.07;9.23;;;6.70;45.30;;;;;;10393264;28;21233;-76
2023/12/01 16:55:09;;;;;;;10.97;10.00;;;6.80;45.00;;;;;;10391973;28;20229;-77
2023/12/01 17:00:14;;;;;;;9.90;9.10;;;6.70;44.40;;;;;;10390941;28;20284;-77
2023/12/01 17:05:18;;;;;;;11.20;10.10;;;6.70;44.10;;;;;;10384429;28;21027;-77
2023/12/01 17:10:23;;;;;;;10.57;9.63;;;6.60;44.10;;;;;;10388977;28;21347;-77
2023/12/01 17:15:26;;;;;;;10.80;9.83;;;6.50;43.90;;;;;;10386647;28;20303;-77
2023/12/01 17:20:31;;;;;;;11.53;10.53;;;6.50;44.00;;;;;;10385919;28;20313;-77
2023/12/01 17:25:34;;;;;;;10.80;9.80;;;6.40;44.10;;;;;;10392215;28;20261;-77
2023/12/01 17:30:37;;;;;;;10.10;9.20;;;6.30;43.80;;;;;;10397626;28;20242;-77
2023/12/01 17:35:42;;;;;;;9.80;8.97;;;6.30;44.00;;;;;;10403919;28;20255;-77
2023/12/01 17:40:45;;;;;;;10.20;9.30;;;6.20;43.90;;;;;;10395556;28;20749;-77
2023/12/01 17:45:49;;;;;;;10.37;9.47;;;6.20;43.90;;;;;;10401749;28;20324;-77
2023/12/01 17:50:54;;;;;;;9.57;8.67;;;6.10;43.90;;;;;;10395915;28;20937;-77
2023/12/01 17:55:57;;;;;;;9.53;8.63;;;6.10;44.10;;;;;;10401579;28;20242;-77
2023/12/01 18:01:01;;;;;;;9.27;8.47;;;6.10;44.20;;;;;;10394921;28;20233;-77
2023/12/01 18:06:08;;;;;;;9.33;8.53;;;6.00;44.20;;;;;;10400087;28;20242;-77
2023/12/01 18:11:11;;;;;;;8.43;7.70;;;6.00;44.30;;;;;;10391301;28;20856;-77
2023/12/01 18:16:15;;;;;;;7.87;7.17;;;6.00;44.10;;;;;;10395963;28;20261;-77
2023/12/01 18:21:19;;;;;;;7.83;7.13;;;6.00;44.10;;;;;;10396521;28;20213;-77
2023/12/01 18:26:22;;;;;;;8.07;7.27;;;5.90;44.20;;;;;;10398132;28;20240;-78
2023/12/01 18:31:26;;;;;;;7.53;6.90;;;5.90;44.30;;;;;;10395710;28;20244;-78
2023/12/01 18:36:30;;;;;;;8.03;7.33;;;5.90;44.30;;;;;;10396306;28;20315;-77
2023/12/01 18:41:34;;;;;;;8.23;7.43;;;5.90;44.30;;;;;;10393720;28;20240;-78
2023/12/01 18:46:37;;;;;;;7.63;6.93;;;5.90;44.30;;;;;;10395702;28;20652;-77
2023/12/01 18:51:44;;;;;;;6.97;6.37;;;5.80;44.20;;;;;;10397868;28;20229;-77
2023/12/01 18:56:47;;;;;;;6.87;6.27;;;5.90;44.50;;;;;;10398450;28;20250;-77
2023/12/01 19:01:51;;;;;;;7.00;6.40;;;5.80;44.20;;;;;;10395709;28;20226;-77
2023/12/01 19:06:55;;;;;;;6.80;6.20;;;5.80;44.30;;;;;;10395509;28;20243;-78
2023/12/01 19:11:59;;;;;;;5.90;5.43;;;5.70;44.30;;;;;;10396798;28;20296;-77
2023/12/01 19:17:02;;;;;;;6.60;6.00;;;5.70;44.20;;;;;;10409303;28;20604;-77
2023/12/01 19:22:06;;;;;;;6.30;5.70;;;5.70;44.10;;;;;;10391847;28;20238;-77
2023/12/01 19:27:10;;;;;;;7.17;6.47;;;5.60;44.20;;;;;;10392179;28;20237;-77
2023/12/01 19:32:13;;;;;;;6.80;6.20;;;5.60;44.20;;;;;;10393436;28;20236;-77
2023/12/01 19:37:19;;;;;;;6.07;5.57;;;5.60;44.40;;;;;;10393735;28;20225;-77
2023/12/01 19:42:22;;;;;;;6.23;5.73;;;5.60;44.60;;;;;;10395734;28;20919;-78
2023/12/01 19:47:25;;;;;;;6.03;5.53;;;5.60;44.60;;;;;;10393061;28;20295;-77
2023/12/01 19:52:30;;;;;;;5.93;5.33;;;5.60;44.40;;;;;;10391925;28;20748;-77
2023/12/01 19:57:33;;;;;;;6.30;5.80;;;5.60;44.50;;;;;;10394341;28;20245;-77
2023/12/01 20:02:36;;;;;;;6.20;5.67;;;5.60;44.40;;;;;;10399118;28;20715;-76
2023/12/01 20:07:43;;;;;;;5.97;5.47;;;5.60;44.40;;;;;;10394326;28;20231;-76
2023/12/01 20:12:46;;;;;;;6.27;5.77;;;5.60;44.40;;;;;;10390830;28;20313;-77
2023/12/01 20:17:49;;;;;;;6.77;6.17;;;5.50;44.20;;;;;;10391816;28;20712;-77
2023/12/01 20:22:54;;;;;;;6.50;5.90;;;5.50;44.30;;;;;;10392642;28;20230;-76
2023/12/01 20:27:57;;;;;;;6.40;5.90;;;5.50;44.50;;;;;;10389349;28;20252;-76
2023/12/01 20:33:00;;;;;;;6.13;5.63;;;5.40;44.30;;;;;;10397144;28;20766;-76
2023/12/01 20:38:05;;;;;;;7.10;6.40;;;5.40;44.30;;;;;;10395283;28;20312;-76
2023/12/01 20:43:09;;;;;;;6.87;6.27;;;5.40;44.50;;;;;;10390220;28;20308;-77
2023/12/01 20:48:12;;;;;;;6.77;6.17;;;5.40;44.50;;;;;;10389378;28;20237;-77
2023/12/01 20:53:17;;;;;;;6.43;5.83;;;5.30;44.30;;;;;;10394345;28;20249;-77
2023/12/01 20:58:20;;;;;;;5.63;5.10;;;5.30;44.60;;;;;;10394010;28;20600;-77
2023/12/01 21:03:23;;;;;;;6.80;6.20;;;5.30;44.50;;;;;;10391025;28;20799;-77
2023/12/01 21:08:28;;;;;;;6.90;6.30;;;5.20;44.40;;;;;;10395292;28;20340;-77
2023/12/01 21:13:31;;;;;;;6.40;5.90;;;5.20;44.70;;;;;;10400955;28;20727;-75
2023/12/01 21:18:34;;;;;;;5.90;5.40;;;5.20;44.60;;;;;;10414991;28;20229;-75
2023/12/01 21:23:40;;;;;;;6.73;6.13;;;5.20;44.60;;;;;;10416770;28;20926;-75
2023/12/01 21:28:43;;;;;;;6.73;6.13;;;5.20;45.00;;;;;;10415275;28;20241;-75
2023/12/01 21:33:46;;;;;;;7.23;6.63;;;5.20;44.90;;;;;;10416699;28;20241;-75
2023/12/01 21:38:51;;;;;;;6.93;6.23;;;5.20;44.70;;;;;;10417133;28;20237;-74
2023/12/01 21:43:54;;;;;;;7.50;6.80;;;5.20;44.80;;;;;;10417339;28;20324;-75
2023/12/01 21:48:59;;;;;;;6.97;6.33;;;5.20;44.60;;;;;;10417063;28;20643;-74
2023/12/01 21:54:04;;;;;;;6.60;6.00;;;5.20;44.60;;;;;;10401829;28;20242;-75
2023/12/01 21:59:08;;;;;;;7.53;6.80;;;5.20;45.30;;;;;;10402327;28;20234;-77
2023/12/01 22:04:11;;;;;;;7.63;6.93;;;5.20;44.50;;;;;;10400057;28;20233;-77
2023/12/01 22:09:15;;;;;;;8.00;7.20;;;5.20;44.50;;;;;;10399595;28;20237;-77
2023/12/01 22:14:19;;;;;;;7.53;6.83;;;5.20;44.60;;;;;;10412671;28;20637;-76
2023/12/01 22:19:22;;;;;;;7.23;6.53;;;5.10;44.50;;;;;;10417304;28;20254;-76
2023/12/01 22:24:28;;;;;;;7.07;6.40;;;5.10;44.60;;;;;;10420941;28;20807;-75
2023/12/01 22:29:31;;;;;;;7.70;7.00;;;5.10;44.80;;;;;;10420244;28;20304;-75
2023/12/01 22:34:34;;;;;;;7.50;6.90;;;5.10;44.70;;;;;;10421434;28;20313;-76
2023/12/01 22:39:39;;;;;;;7.10;6.50;;;5.10;44.70;;;;;;10419923;28;20236;-75
2023/12/01 22:44:42;;;;;;;8.93;7.23;;;5.10;44.70;;;;;;10419376;28;20261;-76
2023/12/01 22:49:47;;;;;;;7.73;7.03;;;5.10;44.60;;;;;;10417983;28;20609;-76
2023/12/01 22:54:51;;;;;;;7.63;6.93;;;5.10;44.50;;;;;;10419558;28;20248;-76
2023/12/01 22:59:55;;;;;;;7.93;7.13;;;5.10;44.60;;;;;;10418011;28;20261;-76
2023/12/01 23:04:58;;;;;;;8.07;7.37;;;5.00;44.50;;;;;;10418823;28;20237;-75
2023/12/01 23:10:03;;;;;;;7.90;7.13;;;4.90;44.40;;;;;;10418823;28;20241;-76
2023/12/01 23:15:08;;;;;;;7.73;6.97;;;4.90;44.60;;;;;;10415806;28;20313;-75
2023/12/01 23:20:14;;;;;;;6.87;6.27;;;4.90;44.80;;;;;;10416690;28;20236;-76
2023/12/01 23:25:19;;;;;;;7.37;6.67;;;4.80;44.70;;;;;;10416422;28;20246;-76
2023/12/01 23:30:23;;;;;;;6.90;6.23;;;4.90;45.00;;;;;;10399696;28;20222;-77
2023/12/01 23:35:26;;;;;;;7.60;6.90;;;4.90;44.90;;;;;;10395773;28;20237;-77
2023/12/01 23:40:30;;;;;;;7.80;7.10;;;4.90;44.90;;;;;;10397497;28;20237;-77
2023/12/01 23:45:34;;;;;;;8.00;6.83;;;4.90;44.90;;;;;;10393531;28;20313;-76
2023/12/01 23:50:37;;;;;;;7.60;6.90;;;4.90;44.80;;;;;;10395247;28;20234;-76
2023/12/01 23:55:42;;;;;;;7.27;6.57;;;4.90;44.70;;;;;;10397895;28;20743;-76
